createdAt,value
2023-05-22T00:00:40.669Z,18.80
2023-05-22T00:01:40.439Z,17.70
2023-05-22T00:02:40.506Z,18.10
2023-05-22T00:03:40.422Z,19.10
2023-05-22T00:04:40.450Z,18.60
2023-05-22T00:05:40.423Z,18.00
2023-05-22T00:06:40.368Z,19.20
2023-05-22T00:07:40.413Z,20.30
2023-05-22T00:08:40.361Z,19.00
2023-05-22T00:09:40.331Z,19.30
2023-05-22T00:10:40.537Z,19.10
2023-05-22T00:11:40.326Z,19.00
2023-05-22T00:12:40.316Z,19.10
2023-05-22T00:13:40.293Z,19.60
2023-05-22T00:14:40.294Z,18.80
2023-05-22T00:15:40.248Z,19.60
2023-05-22T00:16:40.357Z,19.60
2023-05-22T00:17:40.269Z,20.10
2023-05-22T00:18:40.226Z,19.60
2023-05-22T00:19:40.198Z,20.40
2023-05-22T00:20:40.334Z,19.60
2023-05-22T00:21:40.174Z,20.00
2023-05-22T00:22:40.188Z,20.20
2023-05-22T00:23:40.207Z,19.00
2023-05-22T00:24:40.154Z,20.70
2023-05-22T00:25:40.123Z,19.80
2023-05-22T00:26:40.113Z,20.30
2023-05-22T00:27:40.108Z,19.80
2023-05-22T00:28:40.083Z,20.60
2023-05-22T00:29:40.073Z,20.30
2023-05-22T00:30:40.340Z,20.90
2023-05-22T00:31:40.070Z,20.20
2023-05-22T00:32:40.077Z,20.00
2023-05-22T00:33:40.038Z,20.50
2023-05-22T00:34:40.114Z,19.70
2023-05-22T00:35:39.995Z,20.20
2023-05-22T00:36:39.985Z,20.90
2023-05-22T00:37:40.704Z,19.40
2023-05-22T00:38:39.983Z,20.40
2023-05-22T00:39:39.968Z,20.20
2023-05-22T00:40:40.166Z,19.90
2023-05-22T00:41:39.928Z,20.70
2023-05-22T00:42:39.926Z,21.50
2023-05-22T00:43:39.897Z,21.00
2023-05-22T00:44:39.881Z,20.40
2023-05-22T00:45:39.869Z,20.60
2023-05-22T00:46:39.904Z,20.00
2023-05-22T00:47:39.857Z,20.20
2023-05-22T00:48:39.823Z,20.50
2023-05-22T00:49:39.826Z,20.60
2023-05-22T00:50:40.069Z,20.90
2023-05-22T00:51:39.809Z,20.20
2023-05-22T00:52:39.772Z,21.50
2023-05-22T00:53:39.756Z,21.10
2023-05-22T00:54:39.748Z,20.40
2023-05-22T00:55:39.748Z,20.90
2023-05-22T00:56:39.734Z,20.90
2023-05-22T00:57:39.712Z,20.80
2023-05-22T00:58:39.691Z,21.20
2023-05-22T00:59:39.684Z,21.40
2023-05-22T01:00:39.977Z,20.80
2023-05-22T01:01:39.693Z,21.70
2023-05-22T01:02:39.778Z,21.30
2023-05-22T01:03:39.785Z,21.40
2023-05-22T01:04:39.611Z,21.30
2023-05-22T01:05:39.619Z,22.90
2023-05-22T01:06:39.580Z,21.20
2023-05-22T01:07:39.576Z,22.10
2023-05-22T01:08:39.558Z,21.70
2023-05-22T01:09:39.546Z,22.00
2023-05-22T01:10:39.780Z,21.50
2023-05-22T01:11:39.551Z,21.10
2023-05-22T01:12:39.508Z,20.90
2023-05-22T01:13:39.495Z,21.60
2023-05-22T01:14:39.491Z,21.20
2023-05-22T01:15:39.481Z,21.90
2023-05-22T01:16:39.711Z,21.70
2023-05-22T01:17:39.512Z,21.30
2023-05-22T01:18:39.429Z,21.50
2023-05-22T01:19:39.444Z,22.10
2023-05-22T01:20:39.629Z,22.00
2023-05-22T01:21:39.389Z,22.70
2023-05-22T01:22:39.375Z,22.50
2023-05-22T01:23:39.371Z,23.40
2023-05-22T01:24:39.359Z,24.20
2023-05-22T01:25:39.374Z,23.60
2023-05-22T01:26:39.320Z,25.50
2023-05-22T01:27:39.335Z,23.70
2023-05-22T01:28:39.307Z,23.60
2023-05-22T01:29:39.295Z,24.00
2023-05-22T01:30:39.501Z,24.80
2023-05-22T01:31:39.268Z,25.10
2023-05-22T01:32:39.308Z,24.40
2023-05-22T01:33:39.372Z,24.00
2023-05-22T01:34:39.244Z,24.30
2023-05-22T01:35:39.213Z,24.20
2023-05-22T01:36:39.202Z,24.80
2023-05-22T01:37:39.178Z,24.10
2023-05-22T01:38:39.194Z,24.60
2023-05-22T01:39:39.177Z,23.90
2023-05-22T01:40:39.373Z,23.90
2023-05-22T01:41:39.158Z,23.00
2023-05-22T01:42:39.109Z,23.80
2023-05-22T01:43:39.138Z,24.70
2023-05-22T01:44:39.103Z,25.00
2023-05-22T01:45:39.100Z,24.90
2023-05-22T01:46:39.065Z,24.20
2023-05-22T01:47:39.126Z,25.00
2023-05-22T01:48:39.048Z,24.90
2023-05-22T01:49:39.052Z,24.30
2023-05-22T01:50:39.252Z,26.40
2023-05-22T01:51:39.027Z,25.30
2023-05-22T01:52:39.006Z,25.10
2023-05-22T01:53:38.984Z,25.10
2023-05-22T01:54:38.961Z,24.40
2023-05-22T01:55:38.941Z,25.60
2023-05-22T01:56:38.928Z,24.30
2023-05-22T01:57:38.946Z,23.90
2023-05-22T01:58:38.904Z,24.50
2023-05-22T01:59:39.034Z,25.40
2023-05-22T02:00:39.100Z,24.30
2023-05-22T02:01:38.979Z,24.90
2023-05-22T02:02:38.919Z,24.40
2023-05-22T02:03:38.895Z,23.30
2023-05-22T02:04:38.841Z,24.20
2023-05-22T02:05:38.821Z,24.20
2023-05-22T02:06:38.808Z,24.10
2023-05-22T02:07:38.810Z,24.10
2023-05-22T02:08:38.774Z,24.60
2023-05-22T02:09:38.767Z,25.20
2023-05-22T02:10:39.024Z,24.60
2023-05-22T02:11:38.751Z,24.90
2023-05-22T02:12:38.741Z,23.50
2023-05-22T02:13:38.713Z,24.50
2023-05-22T02:14:38.702Z,25.40
2023-05-22T02:15:38.743Z,23.90
2023-05-22T02:16:38.684Z,24.10
2023-05-22T02:17:38.697Z,24.00
2023-05-22T02:18:38.646Z,24.40
2023-05-22T02:19:38.722Z,24.60
2023-05-22T02:20:38.905Z,24.10
2023-05-22T02:21:38.638Z,24.60
2023-05-22T02:22:38.591Z,24.60
2023-05-22T02:23:38.591Z,28.20
2023-05-22T02:24:38.564Z,23.90
2023-05-22T02:25:38.566Z,24.50
2023-05-22T02:26:38.536Z,25.50
2023-05-22T02:27:38.549Z,25.10
2023-05-22T02:28:38.515Z,25.00
2023-05-22T02:29:38.497Z,24.40
2023-05-22T02:30:38.887Z,25.00
2023-05-22T02:31:38.530Z,24.90
2023-05-22T02:32:38.491Z,24.90
2023-05-22T02:33:38.447Z,24.50
2023-05-22T02:34:38.437Z,26.10
2023-05-22T02:35:38.439Z,24.90
2023-05-22T02:36:38.414Z,24.30
2023-05-22T02:37:38.416Z,24.70
2023-05-22T02:38:38.380Z,26.50
2023-05-22T02:39:38.385Z,27.00
2023-05-22T02:40:38.528Z,26.20
2023-05-22T02:41:38.346Z,26.30
2023-05-22T02:42:38.331Z,26.90
2023-05-22T02:43:38.319Z,25.90
2023-05-22T02:44:38.332Z,27.70
2023-05-22T02:45:38.287Z,26.10
2023-05-22T02:46:38.335Z,25.00
2023-05-22T02:47:38.403Z,24.60
2023-05-22T02:48:38.255Z,25.60
2023-05-22T02:49:38.249Z,24.70
2023-05-22T02:50:38.431Z,24.70
2023-05-22T02:51:38.228Z,25.20
2023-05-22T02:52:38.200Z,25.70
2023-05-22T02:53:38.180Z,25.80
2023-05-22T02:54:38.186Z,23.70
2023-05-22T02:55:38.158Z,24.50
2023-05-22T02:56:38.150Z,26.50
2023-05-22T02:57:38.137Z,24.60
2023-05-22T02:58:38.140Z,26.80
2023-05-22T02:59:38.116Z,25.30
2023-05-22T03:00:38.265Z,25.50
2023-05-22T03:01:38.138Z,26.10
2023-05-22T03:02:38.123Z,25.10
2023-05-22T03:03:38.231Z,24.70
2023-05-22T03:04:38.064Z,24.20
2023-05-22T03:05:38.025Z,24.80
2023-05-22T03:06:38.014Z,26.00
2023-05-22T03:07:38.010Z,24.40
2023-05-22T03:08:38.005Z,24.20
2023-05-22T03:09:37.970Z,25.20
2023-05-22T03:10:38.096Z,23.70
2023-05-22T03:11:37.982Z,24.70
2023-05-22T03:12:37.939Z,24.20
2023-05-22T03:13:37.934Z,25.00
2023-05-22T03:14:37.918Z,24.10
2023-05-22T03:15:37.905Z,23.40
2023-05-22T03:16:37.962Z,25.10
2023-05-22T03:17:37.905Z,24.00
2023-05-22T03:18:37.870Z,25.00
2023-05-22T03:19:37.861Z,27.40
2023-05-22T03:20:37.953Z,23.60
2023-05-22T03:21:37.825Z,25.10
2023-05-22T03:22:37.822Z,23.90
2023-05-22T03:23:37.793Z,23.20
2023-05-22T03:24:37.787Z,23.90
2023-05-22T03:25:37.777Z,24.00
2023-05-22T03:26:37.764Z,24.00
2023-05-22T03:27:37.757Z,23.50
2023-05-22T03:28:37.852Z,22.30
2023-05-22T03:29:37.710Z,23.80
2023-05-22T03:30:37.999Z,24.30
2023-05-22T03:31:37.701Z,28.50
2023-05-22T03:32:37.774Z,23.10
2023-05-22T03:33:37.721Z,23.80
2023-05-22T03:34:37.675Z,23.60
2023-05-22T03:35:37.677Z,24.80
2023-05-22T03:36:37.644Z,25.20
2023-05-22T03:37:37.618Z,24.10
2023-05-22T03:38:37.598Z,24.10
2023-05-22T03:39:37.581Z,24.90
2023-05-22T03:40:37.835Z,24.30
2023-05-22T03:41:37.579Z,23.80
2023-05-22T03:42:37.548Z,24.10
2023-05-22T03:43:37.526Z,25.20
2023-05-22T03:44:37.538Z,24.00
2023-05-22T03:45:37.552Z,24.80
2023-05-22T03:46:37.508Z,23.80
2023-05-22T03:47:37.530Z,24.60
2023-05-22T03:48:37.467Z,23.90
2023-05-22T03:49:37.455Z,23.60
2023-05-22T03:50:37.608Z,24.80
2023-05-22T03:51:37.466Z,23.80
2023-05-22T03:52:37.427Z,24.20
2023-05-22T03:53:37.395Z,22.90
2023-05-22T03:54:37.389Z,23.40
2023-05-22T03:55:37.395Z,24.00
2023-05-22T03:56:37.380Z,23.60
2023-05-22T03:57:37.345Z,24.50
2023-05-22T03:58:37.337Z,25.00
2023-05-22T03:59:37.319Z,24.30
2023-05-22T04:00:37.402Z,24.20
2023-05-22T04:01:37.297Z,26.40
2023-05-22T04:02:37.327Z,26.90
2023-05-22T04:03:37.336Z,26.40
2023-05-22T04:04:37.267Z,25.50
2023-05-22T04:05:37.272Z,25.20
2023-05-22T04:06:37.223Z,24.40
2023-05-22T04:07:37.246Z,24.10
2023-05-22T04:08:37.208Z,26.50
2023-05-22T04:09:37.210Z,24.60
2023-05-22T04:10:37.467Z,25.00
2023-05-22T04:11:37.160Z,24.40
2023-05-22T04:12:37.168Z,24.40
2023-05-22T04:13:37.140Z,23.90
2023-05-22T04:14:37.149Z,23.70
2023-05-22T04:15:37.148Z,22.70
2023-05-22T04:16:37.094Z,24.10
2023-05-22T04:17:37.163Z,23.70
2023-05-22T04:18:37.069Z,23.80
2023-05-22T04:19:37.102Z,25.10
2023-05-22T04:20:37.155Z,24.60
2023-05-22T04:21:37.028Z,24.60
2023-05-22T04:22:37.022Z,25.00
2023-05-22T04:23:37.024Z,24.30
2023-05-22T04:24:37.010Z,24.20
2023-05-22T04:25:36.989Z,23.70
2023-05-22T04:26:36.972Z,22.50
2023-05-22T04:27:36.951Z,24.80
2023-05-22T04:28:36.948Z,23.60
2023-05-22T04:29:36.941Z,24.20
2023-05-22T04:30:37.145Z,24.00
2023-05-22T04:31:37.029Z,23.40
2023-05-22T04:32:36.960Z,24.10
2023-05-22T04:33:36.897Z,24.40
2023-05-22T04:34:36.879Z,22.80
2023-05-22T04:35:36.858Z,23.10
2023-05-22T04:36:36.834Z,23.30
2023-05-22T04:37:36.846Z,23.00
2023-05-22T04:38:36.830Z,22.50
2023-05-22T04:39:36.821Z,24.50
2023-05-22T04:40:36.989Z,22.30
2023-05-22T04:41:36.834Z,22.60
2023-05-22T04:42:36.774Z,26.50
2023-05-22T04:43:39.680Z,23.00
2023-05-22T04:44:36.746Z,21.90
2023-05-22T04:45:36.720Z,23.60
2023-05-22T04:46:36.740Z,21.80
2023-05-22T04:47:37.236Z,22.50
2023-05-22T04:48:36.697Z,23.00
2023-05-22T04:49:36.673Z,23.20
2023-05-22T04:50:36.730Z,23.10
2023-05-22T04:51:36.653Z,21.80
2023-05-22T04:52:36.642Z,21.90
2023-05-22T04:53:36.612Z,22.10
2023-05-22T04:54:36.600Z,21.40
2023-05-22T04:55:36.605Z,21.00
2023-05-22T04:56:37.328Z,22.00
2023-05-22T04:57:36.577Z,21.60
2023-05-22T04:58:36.549Z,23.70
2023-05-22T04:59:36.533Z,21.40
2023-05-22T05:00:36.560Z,23.10
2023-05-22T05:01:36.576Z,21.40
2023-05-22T05:02:36.529Z,21.60
2023-05-22T05:03:36.524Z,20.40
2023-05-22T05:04:36.476Z,20.30
2023-05-22T05:05:36.455Z,20.60
2023-05-22T05:06:36.458Z,21.40
2023-05-22T05:07:36.441Z,22.40
2023-05-22T05:08:36.424Z,20.50
2023-05-22T05:09:36.401Z,20.80
2023-05-22T05:10:36.390Z,21.70
2023-05-22T05:11:36.422Z,20.30
2023-05-22T05:12:36.367Z,22.30
2023-05-22T05:13:36.352Z,20.60
2023-05-22T05:14:36.375Z,20.20
2023-05-22T05:15:36.328Z,21.00
2023-05-22T05:16:36.394Z,21.70
2023-05-22T05:17:36.313Z,21.40
2023-05-22T05:18:36.290Z,21.50
2023-05-22T05:19:37.156Z,22.50
2023-05-22T05:20:36.271Z,20.10
2023-05-22T05:21:36.257Z,20.50
2023-05-22T05:22:36.234Z,20.00
2023-05-22T05:23:36.232Z,20.00
2023-05-22T05:24:36.212Z,20.10
2023-05-22T05:25:36.209Z,20.00
2023-05-22T05:26:36.208Z,19.80
2023-05-22T05:27:36.182Z,20.30
2023-05-22T05:28:36.156Z,19.60
2023-05-22T05:29:36.138Z,21.10
2023-05-22T05:30:36.145Z,19.60
2023-05-22T05:31:36.159Z,20.40
2023-05-22T05:32:36.153Z,20.30
2023-05-22T05:33:36.088Z,20.70
2023-05-22T05:34:36.086Z,19.60
2023-05-22T05:35:36.080Z,20.80
2023-05-22T05:36:36.052Z,19.20
2023-05-22T05:37:36.035Z,20.50
2023-05-22T05:38:36.026Z,21.10
2023-05-22T05:39:36.025Z,20.20
2023-05-22T05:40:36.016Z,20.70
2023-05-22T05:41:35.993Z,20.30
2023-05-22T05:42:35.976Z,21.00
2023-05-22T05:43:36.012Z,21.50
2023-05-22T05:44:35.979Z,20.80
2023-05-22T05:45:35.935Z,20.80
2023-05-22T05:46:36.094Z,21.40
2023-05-22T05:47:35.931Z,20.70
2023-05-22T05:48:35.898Z,20.40
2023-05-22T05:49:36.076Z,21.00
2023-05-22T05:50:35.875Z,22.30
2023-05-22T05:51:35.852Z,23.40
2023-05-22T05:52:35.856Z,21.00
2023-05-22T05:53:35.832Z,21.30
2023-05-22T05:54:35.835Z,20.00
2023-05-22T05:55:35.802Z,21.00
2023-05-22T05:56:35.815Z,20.40
2023-05-22T05:57:35.791Z,20.80
2023-05-22T05:58:35.788Z,20.10
2023-05-22T05:59:35.793Z,21.10
2023-05-22T06:00:35.749Z,20.40
2023-05-22T06:01:35.740Z,19.30
2023-05-22T06:02:35.786Z,19.70
2023-05-22T06:03:35.771Z,20.90
2023-05-22T06:04:35.679Z,20.60
2023-05-22T06:05:35.705Z,20.00
2023-05-22T06:06:35.688Z,19.60
2023-05-22T06:07:35.647Z,18.40
2023-05-22T06:08:35.658Z,19.40
2023-05-22T06:09:35.615Z,18.60
2023-05-22T06:10:35.603Z,19.20
2023-05-22T06:11:35.590Z,18.60
2023-05-22T06:12:35.592Z,24.00
2023-05-22T06:13:35.575Z,20.40
2023-05-22T06:14:35.551Z,19.10
2023-05-22T06:15:35.555Z,19.60
2023-05-22T06:16:35.570Z,19.50
2023-05-22T06:17:35.580Z,19.20
2023-05-22T06:18:37.193Z,18.90
2023-05-22T06:19:35.582Z,17.00
2023-05-22T06:20:35.477Z,20.10
2023-05-22T06:21:35.456Z,17.80
2023-05-22T06:22:35.456Z,17.60
2023-05-22T06:23:35.429Z,19.00
2023-05-22T06:24:35.443Z,19.90
2023-05-22T06:25:35.403Z,19.80
2023-05-22T06:26:35.398Z,20.20
2023-05-22T06:27:35.392Z,19.70
2023-05-22T06:28:35.361Z,20.50
2023-05-22T06:29:35.354Z,20.00
2023-05-22T06:30:40.128Z,19.30
2023-05-22T06:31:35.439Z,18.80
2023-05-22T06:32:35.385Z,19.20
2023-05-22T06:33:35.383Z,18.60
2023-05-22T06:34:35.286Z,19.50
2023-05-22T06:35:35.278Z,19.80
2023-05-22T06:36:35.281Z,20.00
2023-05-22T06:37:35.249Z,20.10
2023-05-22T06:38:35.233Z,19.20
2023-05-22T06:39:35.220Z,19.50
2023-05-22T06:40:42.293Z,20.00
2023-05-22T06:41:35.216Z,19.50
2023-05-22T06:42:35.180Z,20.10
2023-05-22T06:43:35.202Z,22.00
2023-05-22T06:44:35.156Z,20.40
2023-05-22T06:45:35.187Z,20.60
2023-05-22T06:46:35.229Z,20.40
2023-05-22T06:47:35.397Z,19.10
2023-05-22T06:48:35.118Z,20.30
2023-05-22T06:49:35.095Z,19.60
2023-05-22T06:50:35.094Z,21.00
2023-05-22T06:51:35.080Z,19.60
2023-05-22T06:52:35.052Z,20.90
2023-05-22T06:53:35.048Z,18.70
2023-05-22T06:54:35.020Z,19.00
2023-05-22T06:55:35.035Z,19.10
2023-05-22T06:56:34.997Z,18.70
2023-05-22T06:57:34.983Z,17.60
2023-05-22T06:58:34.971Z,19.50
2023-05-22T06:59:34.960Z,20.50
2023-05-22T07:00:34.959Z,18.00
2023-05-22T07:01:34.975Z,19.20
2023-05-22T07:02:34.982Z,17.70
2023-05-22T07:03:34.955Z,18.40
2023-05-22T07:04:34.918Z,18.70
2023-05-22T07:05:34.914Z,16.80
2023-05-22T07:06:34.871Z,18.40
2023-05-22T07:07:34.857Z,19.00
2023-05-22T07:08:34.845Z,18.50
2023-05-22T07:09:34.854Z,17.80
2023-05-22T07:10:35.687Z,17.20
2023-05-22T07:11:34.815Z,19.10
2023-05-22T07:12:34.791Z,20.30
2023-05-22T07:13:35.686Z,18.30
2023-05-22T07:14:34.788Z,16.70
2023-05-22T07:15:34.752Z,19.20
2023-05-22T07:16:34.756Z,18.70
2023-05-22T07:17:34.756Z,18.30
2023-05-22T07:18:34.717Z,19.90
2023-05-22T07:19:34.753Z,18.80
2023-05-22T07:20:34.687Z,16.30
2023-05-22T07:21:34.681Z,17.90
2023-05-22T07:22:34.656Z,19.60
2023-05-22T07:23:34.673Z,18.10
2023-05-22T07:24:34.654Z,16.50
2023-05-22T07:25:34.616Z,16.10
2023-05-22T07:26:34.606Z,22.20
2023-05-22T07:27:34.591Z,21.10
2023-05-22T07:28:34.595Z,19.40
2023-05-22T07:29:34.573Z,19.30
2023-05-22T07:30:34.557Z,16.90
2023-05-22T07:31:34.658Z,21.30
2023-05-22T07:32:34.592Z,18.00
2023-05-22T07:33:34.533Z,21.30
2023-05-22T07:34:34.590Z,17.30
2023-05-22T07:35:34.662Z,24.60
2023-05-22T07:36:34.481Z,16.60
2023-05-22T07:37:34.464Z,19.20
2023-05-22T07:38:34.468Z,18.20
2023-05-22T07:39:34.444Z,18.60
2023-05-22T07:40:34.421Z,18.00
2023-05-22T07:41:34.410Z,15.70
2023-05-22T07:42:34.418Z,16.70
2023-05-22T07:43:34.405Z,16.80
2023-05-22T07:44:34.382Z,16.10
2023-05-22T07:45:34.362Z,15.80
2023-05-22T07:46:34.389Z,18.80
2023-05-22T07:47:34.432Z,17.70
2023-05-22T07:48:34.333Z,17.20
2023-05-22T07:49:34.302Z,14.70
2023-05-22T07:50:34.299Z,13.00
2023-05-22T07:51:34.574Z,13.70
2023-05-22T07:52:34.793Z,17.80
2023-05-22T07:53:34.259Z,15.20
2023-05-22T07:54:34.258Z,13.70
2023-05-22T07:55:34.243Z,14.10
2023-05-22T07:56:34.216Z,13.40
2023-05-22T07:57:34.223Z,12.70
2023-05-22T07:58:34.193Z,13.00
2023-05-22T07:59:34.185Z,13.00
2023-05-22T08:00:34.173Z,13.60
2023-05-22T08:01:34.170Z,12.40
2023-05-22T08:02:34.236Z,13.00
2023-05-22T08:03:34.295Z,14.30
2023-05-22T08:04:34.205Z,12.60
2023-05-22T08:05:34.114Z,12.20
2023-05-22T08:06:34.110Z,12.10
2023-05-22T08:07:34.220Z,13.10
2023-05-22T08:08:34.073Z,14.40
2023-05-22T08:09:34.063Z,11.50
2023-05-22T08:10:52.117Z,11.50
2023-05-22T08:11:34.049Z,12.10
2023-05-22T08:12:34.015Z,9.40
2023-05-22T08:13:34.003Z,10.20
2023-05-22T08:14:33.990Z,10.90
2023-05-22T08:15:33.974Z,9.50
2023-05-22T08:16:34.016Z,9.60
2023-05-22T08:17:33.998Z,9.90
2023-05-22T08:18:33.938Z,8.80
2023-05-22T08:19:34.066Z,9.10
2023-05-22T08:20:33.959Z,8.50
2023-05-22T08:21:33.918Z,9.60
2023-05-22T08:22:33.902Z,9.20
2023-05-22T08:23:33.986Z,11.30
2023-05-22T08:24:33.865Z,9.00
2023-05-22T08:25:33.872Z,8.90
2023-05-22T08:26:33.892Z,9.60
2023-05-22T08:27:33.832Z,8.80
2023-05-22T08:28:33.821Z,10.00
2023-05-22T08:29:33.937Z,9.80
2023-05-22T08:30:33.810Z,8.90
2023-05-22T08:31:33.857Z,9.20
2023-05-22T08:32:33.816Z,8.50
2023-05-22T08:33:33.758Z,8.50
2023-05-22T08:34:33.742Z,8.70
2023-05-22T08:35:33.744Z,8.40
2023-05-22T08:36:33.750Z,8.50
2023-05-22T08:37:33.706Z,8.30
2023-05-22T08:38:33.704Z,8.40
2023-05-22T08:39:33.846Z,9.50
2023-05-22T08:40:33.688Z,8.20
2023-05-22T08:41:33.665Z,8.20
2023-05-22T08:42:33.646Z,8.40
2023-05-22T08:43:33.639Z,8.70
2023-05-22T08:44:33.642Z,8.30
2023-05-22T08:45:33.633Z,8.90
2023-05-22T08:46:33.666Z,9.50
2023-05-22T08:47:33.604Z,8.40
2023-05-22T08:48:33.713Z,8.60
2023-05-22T08:49:33.576Z,8.40
2023-05-22T08:50:33.563Z,8.40
2023-05-22T08:51:33.542Z,8.10
2023-05-22T08:52:33.535Z,8.90
2023-05-22T08:53:33.517Z,8.20
2023-05-22T08:54:33.524Z,8.00
2023-05-22T08:55:33.544Z,8.30
2023-05-22T08:56:35.363Z,9.80
2023-05-22T08:57:33.480Z,8.60
2023-05-22T08:58:33.466Z,8.50
2023-05-22T08:59:33.467Z,7.80
2023-05-22T09:00:33.441Z,8.50
2023-05-22T09:01:33.493Z,8.70
2023-05-22T09:02:33.431Z,7.80
2023-05-22T09:03:33.562Z,8.50
2023-05-22T09:04:33.386Z,7.90
2023-05-22T09:05:33.373Z,8.70
2023-05-22T09:06:33.361Z,8.40
2023-05-22T09:07:33.360Z,7.30
2023-05-22T09:08:33.352Z,8.00
2023-05-22T09:09:33.334Z,9.20
2023-05-22T09:10:33.315Z,8.60
2023-05-22T09:11:33.333Z,8.60
2023-05-22T09:12:33.301Z,8.10
2023-05-22T09:13:33.301Z,7.90
2023-05-22T09:14:33.268Z,11.40
2023-05-22T09:15:33.259Z,8.00
2023-05-22T09:16:33.257Z,8.80
2023-05-22T09:17:33.324Z,8.10
2023-05-22T09:18:33.221Z,8.70
2023-05-22T09:19:33.317Z,7.60
2023-05-22T09:20:33.203Z,7.80
2023-05-22T09:21:33.186Z,9.90
2023-05-22T09:22:33.184Z,8.30
2023-05-22T09:23:33.157Z,9.00
2023-05-22T09:24:33.152Z,8.20
2023-05-22T09:25:33.139Z,7.70
2023-05-22T09:26:33.157Z,8.60
2023-05-22T09:27:33.381Z,8.30
2023-05-22T09:28:33.126Z,8.60
2023-05-22T09:29:33.092Z,8.20
2023-05-22T09:30:33.085Z,8.30
2023-05-22T09:31:33.137Z,8.10
2023-05-22T09:32:33.097Z,8.60
2023-05-22T09:33:33.050Z,8.70
2023-05-22T09:34:33.038Z,8.30
2023-05-22T09:35:33.025Z,8.70
2023-05-22T09:36:33.033Z,8.30
2023-05-22T09:37:33.005Z,8.50
2023-05-22T09:38:32.991Z,8.50
2023-05-22T09:39:32.980Z,8.90
2023-05-22T09:40:32.967Z,7.80
2023-05-22T09:41:32.990Z,8.60
2023-05-22T09:42:32.948Z,8.00
2023-05-22T09:43:33.049Z,7.90
2023-05-22T09:44:33.086Z,8.10
2023-05-22T09:45:32.913Z,8.30
2023-05-22T09:46:32.935Z,8.20
2023-05-22T09:47:32.904Z,10.60
2023-05-22T09:48:32.874Z,8.30
2023-05-22T09:49:32.868Z,8.30
2023-05-22T09:50:32.909Z,8.00
2023-05-22T09:51:32.877Z,8.10
2023-05-22T09:52:32.827Z,8.20
2023-05-22T09:53:32.825Z,8.20
2023-05-22T09:54:32.844Z,8.10
2023-05-22T09:55:32.830Z,8.40
2023-05-22T09:56:39.170Z,8.10
2023-05-22T09:57:32.776Z,8.50
2023-05-22T09:58:32.757Z,8.50
2023-05-22T09:59:32.773Z,8.30
2023-05-22T10:00:32.751Z,8.80
2023-05-22T10:01:32.759Z,8.10
2023-05-22T10:02:32.833Z,8.40
2023-05-22T10:03:32.703Z,8.00
2023-05-22T10:04:32.787Z,8.30
2023-05-22T10:05:32.752Z,7.90
2023-05-22T10:06:32.660Z,8.30
2023-05-22T10:07:32.651Z,9.60
2023-05-22T10:08:32.640Z,7.90
2023-05-22T10:09:32.650Z,8.00
2023-05-22T10:10:32.634Z,8.10
2023-05-22T10:11:32.603Z,8.30
2023-05-22T10:12:32.593Z,8.00
2023-05-22T10:13:32.575Z,8.50
2023-05-22T10:14:32.676Z,8.10
2023-05-22T10:15:32.704Z,8.30
2023-05-22T10:16:32.614Z,8.30
2023-05-22T10:17:32.583Z,8.60
2023-05-22T10:18:32.519Z,9.00
2023-05-22T10:19:32.587Z,8.50
2023-05-22T10:20:32.493Z,9.00
2023-05-22T10:21:32.485Z,9.20
2023-05-22T10:22:32.469Z,7.90
2023-05-22T10:23:32.477Z,8.40
2023-05-22T10:24:32.465Z,9.40
2023-05-22T10:25:32.446Z,8.40
2023-05-22T10:26:32.448Z,8.30
2023-05-22T10:27:32.412Z,8.00
2023-05-22T10:28:32.414Z,7.90
2023-05-22T10:29:32.425Z,8.30
2023-05-22T10:30:32.380Z,8.30
2023-05-22T10:31:32.488Z,10.60
2023-05-22T10:32:32.374Z,8.80
2023-05-22T10:33:32.370Z,9.40
2023-05-22T10:34:32.328Z,8.40
2023-05-22T10:35:32.318Z,8.50
2023-05-22T10:36:32.321Z,9.50
2023-05-22T10:37:32.309Z,8.50
2023-05-22T10:38:32.295Z,8.30
2023-05-22T10:39:32.272Z,8.40
2023-05-22T10:40:32.675Z,8.20
2023-05-22T10:41:32.254Z,8.10
2023-05-22T10:42:32.247Z,8.60
2023-05-22T10:43:32.236Z,8.00
2023-05-22T10:44:32.208Z,8.30
2023-05-22T10:45:32.309Z,8.90
2023-05-22T10:46:32.279Z,8.20
2023-05-22T10:47:32.316Z,8.50
2023-05-22T10:48:32.163Z,8.00
2023-05-22T10:49:32.158Z,8.70
2023-05-22T10:50:32.137Z,8.80
2023-05-22T10:51:32.124Z,8.50
2023-05-22T10:52:32.129Z,8.20
2023-05-22T10:53:32.108Z,8.70
2023-05-22T10:54:32.094Z,8.00
2023-05-22T10:55:32.087Z,8.80
2023-05-22T10:56:32.094Z,8.60
2023-05-22T10:57:32.074Z,8.40
2023-05-22T10:58:32.053Z,8.20
2023-05-22T10:59:32.036Z,8.00
2023-05-22T11:00:32.080Z,7.60
2023-05-22T11:01:32.148Z,7.70
2023-05-22T11:02:32.074Z,8.60
2023-05-22T11:03:32.140Z,8.40
2023-05-22T11:04:32.016Z,11.50
2023-05-22T11:05:31.970Z,8.20
2023-05-22T11:06:31.970Z,8.10
2023-05-22T11:07:31.946Z,8.60
2023-05-22T11:08:31.937Z,8.60
2023-05-22T11:09:31.922Z,9.10
2023-05-22T11:10:31.930Z,8.00
2023-05-22T11:11:31.917Z,8.30
2023-05-22T11:12:31.897Z,7.60
2023-05-22T11:13:31.893Z,8.20
2023-05-22T11:14:31.863Z,7.90
2023-05-22T11:15:31.865Z,8.00
2023-05-22T11:16:31.859Z,9.00
2023-05-22T11:17:31.936Z,7.80
2023-05-22T11:18:31.817Z,9.10
2023-05-22T11:19:31.946Z,8.60
2023-05-22T11:20:31.819Z,8.50
2023-05-22T11:21:31.784Z,8.80
2023-05-22T11:22:31.779Z,7.90
2023-05-22T11:23:31.758Z,7.70
2023-05-22T11:24:31.747Z,8.10
2023-05-22T11:25:31.749Z,7.30
2023-05-22T11:26:31.736Z,7.50
2023-05-22T11:27:31.712Z,14.40
2023-05-22T11:28:31.701Z,8.10
2023-05-22T11:29:31.714Z,7.40
2023-05-22T11:30:31.708Z,7.30
2023-05-22T11:31:31.709Z,7.60
2023-05-22T11:32:31.736Z,7.50
2023-05-22T11:33:31.643Z,7.90
2023-05-22T11:34:31.682Z,7.70
2023-05-22T11:35:31.738Z,7.80
2023-05-22T11:36:31.613Z,7.80
2023-05-22T11:37:31.603Z,7.90
2023-05-22T11:38:31.597Z,7.80
2023-05-22T11:39:31.594Z,8.10
2023-05-22T11:40:31.568Z,7.80
2023-05-22T11:41:33.417Z,7.80
2023-05-22T11:42:31.543Z,7.60
2023-05-22T11:43:31.550Z,8.60
2023-05-22T11:44:31.548Z,7.90
2023-05-22T11:45:31.526Z,7.70
2023-05-22T11:46:31.517Z,7.70
2023-05-22T11:47:31.501Z,7.80
2023-05-22T11:48:31.489Z,8.00
2023-05-22T11:49:31.500Z,10.50
2023-05-22T11:50:41.673Z,8.30
2023-05-22T11:51:32.563Z,8.40
2023-05-22T11:52:31.430Z,7.80
2023-05-22T11:53:31.430Z,8.40
2023-05-22T11:54:31.404Z,7.50
2023-05-22T11:55:31.396Z,7.40
2023-05-22T11:56:31.380Z,7.80
2023-05-22T11:57:31.381Z,7.50
2023-05-22T11:58:31.370Z,7.70
2023-05-22T11:59:31.348Z,7.90
2023-05-22T12:00:31.639Z,7.30
2023-05-22T12:01:31.317Z,7.60
2023-05-22T12:02:31.390Z,7.90
2023-05-22T12:03:31.497Z,7.90
2023-05-22T12:04:31.286Z,7.60
2023-05-22T12:05:31.265Z,7.40
2023-05-22T12:06:31.282Z,8.50
2023-05-22T12:07:31.377Z,7.30
2023-05-22T12:08:31.245Z,7.50
2023-05-22T12:09:31.220Z,7.40
2023-05-22T12:10:31.209Z,7.10
2023-05-22T12:11:31.197Z,7.60
2023-05-22T12:12:31.205Z,7.70
2023-05-22T12:13:31.199Z,7.50
2023-05-22T12:14:31.169Z,7.60
2023-05-22T12:15:31.236Z,8.60
2023-05-22T12:16:31.231Z,7.50
2023-05-22T12:17:31.195Z,7.40
2023-05-22T12:18:31.115Z,7.40
2023-05-22T12:19:31.237Z,7.80
2023-05-22T12:20:31.096Z,8.10
2023-05-22T12:21:31.093Z,7.80
2023-05-22T12:22:31.071Z,7.70
2023-05-22T12:23:31.181Z,7.70
2023-05-22T12:24:31.047Z,9.40
2023-05-22T12:25:31.036Z,8.80
2023-05-22T12:26:31.044Z,8.50
2023-05-22T12:27:32.926Z,7.30
2023-05-22T12:28:30.998Z,7.40
2023-05-22T12:29:30.996Z,7.30
2023-05-22T12:30:31.018Z,7.50
2023-05-22T12:31:31.154Z,7.50
2023-05-22T12:32:31.221Z,6.90
2023-05-22T12:33:30.941Z,7.60
2023-05-22T12:34:30.993Z,7.10
2023-05-22T12:35:31.082Z,7.50
2023-05-22T12:36:30.986Z,7.80
2023-05-22T12:37:30.902Z,7.70
2023-05-22T12:38:31.359Z,7.60
2023-05-22T12:39:31.071Z,7.30
2023-05-22T12:40:30.876Z,7.70
2023-05-22T12:41:30.850Z,7.20
2023-05-22T12:42:30.845Z,7.40
2023-05-22T12:43:30.836Z,7.10
2023-05-22T12:44:30.828Z,6.70
2023-05-22T12:45:30.818Z,7.60
2023-05-22T12:46:30.851Z,7.80
2023-05-22T12:47:30.825Z,7.50
2023-05-22T12:48:30.770Z,8.90
2023-05-22T12:49:30.793Z,7.30
2023-05-22T12:50:30.757Z,8.00
2023-05-22T12:51:30.732Z,7.60
2023-05-22T12:52:30.723Z,8.00
2023-05-22T12:53:30.728Z,7.60
2023-05-22T12:54:30.715Z,8.50
2023-05-22T12:55:30.806Z,7.60
2023-05-22T12:56:30.678Z,8.20
2023-05-22T12:57:30.675Z,7.70
2023-05-22T12:58:30.660Z,8.00
2023-05-22T12:59:30.651Z,7.40
2023-05-22T13:00:30.626Z,7.40
2023-05-22T13:01:30.628Z,7.60